Time;durP1;ratioP1;P1;durP2;ratioP2;P2;SDS_P1;SDS_P2;PMS_P1;PMS_P2;Temp;Humidity;BMP_temperature;BMP_pressure;BME280_temperature;BME280_humidity;BME280_pressure;Samples;Min_cycle;Max_cycle;Signal;HPM_P1;HPM_P2
2022/09/08 00:00:40;;;;;;;0.90;0.80;;;16.80;99.90;;;;;;5068391;28;20424;-79
2022/09/08 00:03:10;;;;;;;0.55;0.55;;;16.80;99.90;;;;;;5063677;28;20481;-78
2022/09/08 00:05:44;;;;;;;0.77;0.73;;;16.80;99.90;;;;;;5046908;28;20436;-78
2022/09/08 00:08:11;;;;;;;0.57;0.57;;;16.70;99.90;;;;;;5039325;28;20431;-78
2022/09/08 00:10:39;;;;;;;0.50;0.50;;;16.80;99.90;;;;;;5065538;28;20493;-77
2022/09/08 00:13:07;;;;;;;1.98;0.73;;;16.80;99.90;;;;;;5040323;28;20846;-78
2022/09/08 00:15:36;;;;;;;0.70;0.70;;;16.90;99.90;;;;;;5040367;28;20433;-78
2022/09/08 00:18:04;;;;;;;0.60;0.60;;;16.90;99.90;;;;;;5064724;28;20442;-79
2022/09/08 00:20:31;;;;;;;0.50;0.50;;;17.00;99.90;;;;;;5043832;28;20449;-78
2022/09/08 00:22:58;;;;;;;0.60;0.60;;;17.00;99.90;;;;;;5058212;28;20845;-78
2022/09/08 00:25:34;;;;;;;0.70;0.70;;;17.10;99.90;;;;;;5058169;28;20848;-78
2022/09/08 00:28:01;;;;;;;0.80;0.80;;;17.10;99.90;;;;;;5063486;28;20431;-78
2022/09/08 00:30:27;;;;;;;0.70;0.70;;;17.10;99.90;;;;;;5069710;28;20476;-78
2022/09/08 00:32:54;;;;;;;0.47;0.47;;;17.10;99.90;;;;;;5058935;28;20419;-78
2022/09/08 00:35:21;;;;;;;0.57;0.57;;;17.20;99.90;;;;;;5063863;28;21425;-78
2022/09/08 00:37:52;;;;;;;0.70;0.70;;;17.10;99.90;;;;;;5062669;28;20457;-79
2022/09/08 00:40:21;;;;;;;0.60;0.50;;;17.10;99.90;;;;;;5045010;28;20439;-79
2022/09/08 00:42:57;;;;;;;0.40;0.40;;;17.10;99.90;;;;;;5063921;28;20480;-78
2022/09/08 00:45:26;;;;;;;0.50;0.50;;;17.10;99.90;;;;;;5065314;28;20442;-79
2022/09/08 00:47:58;;;;;;;0.57;0.57;;;17.00;99.90;;;;;;5064486;28;20847;-78
2022/09/08 00:50:27;;;;;;;0.57;0.57;;;17.00;99.90;;;;;;5058157;28;20429;-79
2022/09/08 00:53:03;;;;;;;0.63;0.63;;;17.00;99.90;;;;;;5059898;28;20437;-78
2022/09/08 00:55:35;;;;;;;0.75;0.75;;;17.00;99.90;;;;;;5064221;28;21141;-78
2022/09/08 00:58:03;;;;;;;0.80;0.80;;;17.00;99.90;;;;;;5067614;28;20465;-78
2022/09/08 01:00:31;;;;;;;0.80;0.80;;;16.90;99.90;;;;;;5069045;28;20816;-78
2022/09/08 01:02:57;;;;;;;0.57;0.57;;;16.90;99.90;;;;;;5073353;28;20434;-79
2022/09/08 01:05:51;;;;;;;0.50;0.47;;;16.90;99.90;;;;;;5050443;28;20918;-79
2022/09/08 01:14:47;;;;;;;1.10;0.80;;;16.80;99.90;;;;;;4932927;29;20436;-78
2022/09/08 01:17:25;;;;;;;0.82;0.82;;;16.80;99.90;;;;;;4936106;29;20447;-78
2022/09/08 01:19:53;;;;;;;0.98;0.90;;;16.80;99.90;;;;;;4932266;29;20454;-78
2022/09/08 01:22:57;;;;;;;0.60;0.60;;;16.80;99.90;;;;;;4931241;29;20447;-78
2022/09/08 01:25:30;;;;;;;0.65;0.65;;;16.80;99.90;;;;;;4944674;29;20451;-78
2022/09/08 01:28:28;;;;;;;0.60;0.60;;;16.80;99.90;;;;;;4934927;29;20442;-78
2022/09/08 01:30:55;;;;;;;2.30;0.90;;;16.80;99.90;;;;;;4927148;29;20611;-78
2022/09/08 01:33:24;;;;;;;0.70;0.70;;;16.90;99.90;;;;;;4928771;29;20537;-78
2022/09/08 01:35:51;;;;;;;1.30;0.80;;;16.90;99.90;;;;;;4943658;29;20475;-78
2022/09/08 01:38:18;;;;;;;0.70;0.70;;;16.90;99.90;;;;;;4934218;29;20439;-78
2022/09/08 01:40:45;;;;;;;0.60;0.60;;;16.90;99.90;;;;;;4941820;29;20549;-80
2022/09/08 01:43:12;;;;;;;0.60;0.60;;;16.90;99.90;;;;;;4944193;29;20951;-79
2022/09/08 01:45:40;;;;;;;0.73;0.73;;;16.80;99.90;;;;;;4946685;28;20436;-79
2022/09/08 01:48:07;;;;;;;0.57;0.57;;;16.80;99.90;;;;;;5015950;28;20432;-79
2022/09/08 01:50:36;;;;;;;0.75;0.75;;;16.70;99.90;;;;;;5070937;28;20427;-79
2022/09/08 01:53:02;;;;;;;1.08;0.68;;;16.60;99.90;;;;;;5050066;28;20475;-79
2022/09/08 01:55:29;;;;;;;0.50;0.50;;;16.60;99.90;;;;;;5059187;28;20998;-79
2022/09/08 01:57:56;;;;;;;0.50;0.50;;;16.50;99.90;;;;;;5049135;28;20440;-79
2022/09/08 02:00:23;;;;;;;0.63;0.63;;;16.50;99.90;;;;;;5050918;28;20431;-79
2022/09/08 02:02:52;;;;;;;0.52;0.52;;;16.40;99.90;;;;;;5066196;28;20438;-80
2022/09/08 02:05:19;;;;;;;0.55;0.55;;;16.40;99.90;;;;;;5050552;28;20432;-80
2022/09/08 02:07:50;;;;;;;0.60;0.60;;;16.30;99.90;;;;;;5068501;28;20435;-80
2022/09/08 02:10:22;;;;;;;0.60;0.60;;;16.30;99.90;;;;;;5048744;28;20435;-80
2022/09/08 02:12:49;;;;;;;0.80;0.80;;;16.30;99.90;;;;;;5070146;28;20431;-81
2022/09/08 02:15:16;;;;;;;0.80;0.80;;;16.20;99.90;;;;;;5067079;28;20512;-80
2022/09/08 02:17:42;;;;;;;0.57;0.57;;;16.20;99.90;;;;;;5067827;28;20448;-80
2022/09/08 02:20:15;;;;;;;0.50;0.50;;;16.20;99.90;;;;;;5069196;28;20431;-80
2022/09/08 02:22:45;;;;;;;0.80;0.80;;;16.20;99.90;;;;;;5073275;28;20439;-80
2022/09/08 02:25:15;;;;;;;0.47;0.47;;;16.20;99.90;;;;;;5041531;28;20446;-80
2022/09/08 02:27:42;;;;;;;0.60;0.60;;;16.20;99.90;;;;;;5044346;28;20434;-77
2022/09/08 02:30:12;;;;;;;0.60;0.60;;;16.10;99.90;;;;;;5067736;28;20431;-77
2022/09/08 02:32:39;;;;;;;0.60;0.50;;;16.20;99.90;;;;;;5065891;28;20832;-77
2022/09/08 02:35:06;;;;;;;0.65;0.57;;;16.10;99.90;;;;;;5064616;28;20443;-78
2022/09/08 02:37:33;;;;;;;0.73;0.73;;;16.10;99.90;;;;;;5072307;28;20439;-77
2022/09/08 02:40:02;;;;;;;0.67;0.67;;;16.20;99.90;;;;;;5046617;28;20473;-78
2022/09/08 02:42:29;;;;;;;0.45;0.45;;;16.20;99.90;;;;;;5058601;28;20472;-80
2022/09/08 02:44:55;;;;;;;0.57;0.57;;;16.20;99.90;;;;;;5042597;28;20431;-78
2022/09/08 02:47:22;;;;;;;0.73;0.73;;;16.20;99.90;;;;;;5044381;28;20548;-78
2022/09/08 02:49:49;;;;;;;0.80;0.80;;;16.20;99.90;;;;;;5046014;28;20485;-78
2022/09/08 02:52:15;;;;;;;0.60;0.60;;;16.10;99.90;;;;;;5063183;28;20917;-78
2022/09/08 02:54:42;;;;;;;0.45;0.45;;;16.10;99.90;;;;;;5048190;28;20474;-78
2022/09/08 02:57:09;;;;;;;0.95;0.95;;;16.10;99.90;;;;;;5067637;28;20435;-78
2022/09/08 02:59:35;;;;;;;0.90;0.65;;;16.10;99.90;;;;;;5048198;28;20507;-78
2022/09/08 03:02:02;;;;;;;0.70;0.70;;;16.10;99.90;;;;;;5069175;28;20771;-78
2022/09/08 03:04:29;;;;;;;0.85;0.85;;;16.00;99.90;;;;;;5065687;28;20428;-78
2022/09/08 03:06:56;;;;;;;0.57;0.57;;;16.00;99.90;;;;;;5047531;28;20441;-78
2022/09/08 03:09:22;;;;;;;0.60;0.60;;;16.00;99.90;;;;;;5060034;28;20489;-78
2022/09/08 03:11:49;;;;;;;0.63;0.63;;;16.00;99.90;;;;;;5045058;28;20491;-78
2022/09/08 03:14:16;;;;;;;0.50;0.50;;;16.00;99.90;;;;;;5047126;28;20429;-78
2022/09/08 03:16:46;;;;;;;2.50;0.70;;;16.00;99.90;;;;;;5046898;28;21006;-78
2022/09/08 03:19:12;;;;;;;0.73;0.70;;;16.10;99.90;;;;;;5057870;28;20436;-78
2022/09/08 03:21:42;;;;;;;0.75;0.60;;;16.10;99.90;;;;;;5061265;28;20425;-78
2022/09/08 03:24:09;;;;;;;0.40;0.40;;;16.10;99.90;;;;;;5052643;28;20484;-78
2022/09/08 03:26:36;;;;;;;0.50;0.50;;;16.10;99.90;;;;;;5046610;28;21221;-78
2022/09/08 03:29:03;;;;;;;0.55;0.55;;;16.10;99.90;;;;;;5050508;28;20481;-78
2022/09/08 03:31:29;;;;;;;0.73;0.60;;;16.10;99.90;;;;;;5068743;28;20473;-78
2022/09/08 03:33:56;;;;;;;0.68;0.68;;;16.10;99.90;;;;;;5064042;28;20425;-78
2022/09/08 03:36:23;;;;;;;0.60;0.60;;;16.10;99.90;;;;;;5046651;28;20441;-77
2022/09/08 03:38:50;;;;;;;0.57;0.57;;;16.10;99.90;;;;;;5043178;28;20441;-77
2022/09/08 03:41:16;;;;;;;0.63;0.63;;;16.10;99.90;;;;;;5040704;28;20432;-77
2022/09/08 03:43:44;;;;;;;0.90;0.90;;;16.10;99.90;;;;;;5062817;28;21151;-78
2022/09/08 03:46:13;;;;;;;0.50;0.50;;;16.10;99.90;;;;;;5071490;28;21168;-78
2022/09/08 03:48:43;;;;;;;1.00;0.65;;;16.10;99.90;;;;;;5046492;28;20966;-78
2022/09/08 03:51:16;;;;;;;0.82;0.80;;;16.00;99.90;;;;;;5066487;28;20424;-78
2022/09/08 03:53:45;;;;;;;0.60;0.60;;;16.00;99.90;;;;;;5064146;28;20437;-77
2022/09/08 03:56:15;;;;;;;0.73;0.73;;;16.00;99.90;;;;;;5062480;28;20442;-78
2022/09/08 03:58:42;;;;;;;0.43;0.43;;;16.00;99.90;;;;;;5068451;28;20465;-78
2022/09/08 04:01:11;;;;;;;0.50;0.50;;;16.00;99.90;;;;;;5051223;28;21038;-78
2022/09/08 04:03:39;;;;;;;0.63;0.63;;;16.00;99.90;;;;;;5064538;28;20431;-78
2022/09/08 04:06:12;;;;;;;0.50;0.50;;;16.00;99.90;;;;;;5068476;28;20446;-78
2022/09/08 04:08:39;;;;;;;0.40;0.40;;;16.00;99.90;;;;;;5046700;28;20440;-77
2022/09/08 04:11:06;;;;;;;0.43;0.43;;;16.00;99.90;;;;;;5063077;28;20423;-78
2022/09/08 04:13:33;;;;;;;0.50;0.50;;;16.00;99.90;;;;;;5065693;28;20427;-77
2022/09/08 04:16:03;;;;;;;0.40;0.40;;;16.00;99.90;;;;;;5064647;28;20434;-77
2022/09/08 04:18:34;;;;;;;0.52;0.52;;;16.10;99.90;;;;;;5070674;28;20928;-77
2022/09/08 04:21:03;;;;;;;0.75;0.75;;;16.10;99.90;;;;;;5065527;28;20514;-78
2022/09/08 04:23:31;;;;;;;0.45;0.45;;;16.10;99.90;;;;;;5067971;28;20443;-77
2022/09/08 04:26:04;;;;;;;0.80;0.80;;;16.10;99.90;;;;;;5045958;28;20472;-78
2022/09/08 04:28:31;;;;;;;0.70;0.70;;;16.10;99.90;;;;;;5053462;28;20436;-78
2022/09/08 04:30:58;;;;;;;0.65;0.60;;;16.10;99.90;;;;;;5057907;28;20910;-77
2022/09/08 04:33:28;;;;;;;0.52;0.52;;;16.00;99.90;;;;;;5037742;28;20419;-77
2022/09/08 04:35:55;;;;;;;0.55;0.50;;;16.10;99.90;;;;;;5044638;28;20931;-77
2022/09/08 04:38:42;;;;;;;0.85;0.85;;;16.10;99.90;;;;;;5064951;28;20963;-77
2022/09/08 04:41:11;;;;;;;1.33;1.00;;;16.10;99.90;;;;;;5042811;28;20423;-77
2022/09/08 04:43:40;;;;;;;0.70;0.70;;;16.10;99.90;;;;;;5042887;28;20850;-78
2022/09/08 04:46:10;;;;;;;0.63;0.63;;;16.10;99.90;;;;;;5063907;28;20419;-77
2022/09/08 04:48:41;;;;;;;0.85;0.85;;;16.20;99.90;;;;;;5043828;28;21143;-79
2022/09/08 04:51:10;;;;;;;0.80;0.80;;;16.10;99.90;;;;;;5068919;28;20999;-78
2022/09/08 04:53:38;;;;;;;0.73;0.73;;;16.00;99.90;;;;;;5046420;28;21069;-78
2022/09/08 04:56:06;;;;;;;0.70;0.70;;;16.00;99.90;;;;;;5043383;28;20437;-79
2022/09/08 04:58:36;;;;;;;1.00;1.00;;;15.90;99.90;;;;;;5039765;28;20465;-79
2022/09/08 05:01:08;;;;;;;0.80;0.80;;;15.90;99.90;;;;;;5063131;28;20431;-78
2022/09/08 05:03:36;;;;;;;0.43;0.43;;;15.90;99.90;;;;;;5053609;28;20431;-78
2022/09/08 05:06:06;;;;;;;0.82;0.82;;;15.90;99.90;;;;;;5059979;28;20431;-79
2022/09/08 05:08:35;;;;;;;0.70;0.50;;;15.80;99.90;;;;;;5037972;28;20520;-78
2022/09/08 05:11:02;;;;;;;0.40;0.40;;;15.80;99.90;;;;;;5042381;28;20791;-79
2022/09/08 05:13:29;;;;;;;0.40;0.40;;;15.80;99.90;;;;;;5039869;28;20433;-79
2022/09/08 05:16:08;;;;;;;1.40;0.60;;;15.80;99.90;;;;;;5043040;28;20432;-78
2022/09/08 05:18:35;;;;;;;0.50;0.50;;;15.80;99.90;;;;;;5043555;28;20998;-80
2022/09/08 05:21:03;;;;;;;0.40;0.40;;;15.80;99.90;;;;;;5045246;28;20472;-79
2022/09/08 05:23:30;;;;;;;0.47;0.47;;;15.70;99.90;;;;;;5065835;28;20960;-80
2022/09/08 05:26:00;;;;;;;0.30;0.30;;;15.70;99.90;;;;;;5069354;28;20439;-79
2022/09/08 05:28:29;;;;;;;0.53;0.53;;;15.70;99.90;;;;;;5045608;28;20437;-80
2022/09/08 05:30:56;;;;;;;0.32;0.32;;;15.70;99.90;;;;;;5030399;28;20432;-80
2022/09/08 05:33:26;;;;;;;0.25;0.25;;;15.60;99.90;;;;;;5058290;28;20437;-80
2022/09/08 05:35:54;;;;;;;0.50;0.30;;;15.60;99.90;;;;;;5041413;28;20433;-80
2022/09/08 05:38:21;;;;;;;0.22;0.22;;;15.70;99.90;;;;;;5045466;28;20429;-80
2022/09/08 05:40:48;;;;;;;0.43;0.43;;;15.70;99.90;;;;;;5028515;28;20492;-81
2022/09/08 05:43:16;;;;;;;0.40;0.40;;;15.70;99.90;;;;;;5039256;28;20545;-80
2022/09/08 05:45:49;;;;;;;0.45;0.45;;;15.70;99.90;;;;;;5039081;28;20487;-81
2022/09/08 05:48:18;;;;;;;0.50;0.50;;;15.70;99.90;;;;;;5063134;28;20436;-80
2022/09/08 05:50:46;;;;;;;0.30;0.30;;;15.60;99.90;;;;;;5038373;28;20763;-80
2022/09/08 05:53:13;;;;;;;0.40;0.40;;;15.60;99.90;;;;;;5067524;28;20794;-80
2022/09/08 05:55:56;;;;;;;0.40;0.40;;;15.70;99.90;;;;;;5066794;28;20485;-80
2022/09/08 05:58:23;;;;;;;0.40;0.40;;;15.70;99.90;;;;;;5047350;28;20470;-80
2022/09/08 06:01:04;;;;;;;1.53;0.50;;;15.70;99.90;;;;;;5046959;28;20441;-80
2022/09/08 06:03:31;;;;;;;0.70;0.50;;;15.70;99.90;;;;;;5065751;28;20925;-80
2022/09/08 06:06:04;;;;;;;0.45;0.45;;;15.70;99.90;;;;;;5060552;28;20437;-80
2022/09/08 06:08:31;;;;;;;0.63;0.40;;;15.70;99.90;;;;;;5044330;28;20805;-81
2022/09/08 06:10:58;;;;;;;0.50;0.50;;;15.70;99.90;;;;;;5045867;28;20438;-81
2022/09/08 06:13:25;;;;;;;0.95;0.70;;;15.70;99.90;;;;;;5066481;28;20473;-81
2022/09/08 06:15:51;;;;;;;0.38;0.38;;;15.70;99.90;;;;;;5052256;28;20968;-81
2022/09/08 06:18:19;;;;;;;0.43;0.43;;;15.60;99.90;;;;;;5063940;28;20423;-81
2022/09/08 06:20:46;;;;;;;0.25;0.25;;;15.70;99.90;;;;;;5052610;28;20505;-81
2022/09/08 06:23:14;;;;;;;0.30;0.30;;;15.70;99.90;;;;;;5058013;28;20761;-81
2022/09/08 06:25:43;;;;;;;0.52;0.40;;;15.60;99.90;;;;;;5051879;28;20451;-80
2022/09/08 06:28:34;;;;;;;0.25;0.25;;;15.70;99.90;;;;;;5053878;28;20431;-81
2022/09/08 06:31:06;;;;;;;0.70;0.40;;;15.60;99.90;;;;;;5049737;28;20428;-81
2022/09/08 06:33:39;;;;;;;0.20;0.20;;;15.70;99.90;;;;;;5064780;28;20511;-81
2022/09/08 06:36:18;;;;;;;0.30;0.30;;;15.70;99.90;;;;;;5045307;28;20735;-81
2022/09/08 06:38:57;;;;;;;0.28;0.28;;;15.80;99.90;;;;;;5065180;28;20432;-81
2022/09/08 06:41:33;;;;;;;0.20;0.20;;;15.70;99.90;;;;;;5036301;28;21361;-80
2022/09/08 06:44:08;;;;;;;0.40;0.40;;;15.70;99.90;;;;;;5042488;28;20921;-80
2022/09/08 06:46:40;;;;;;;0.40;0.40;;;15.70;99.90;;;;;;5044431;28;20927;-80
2022/09/08 06:49:11;;;;;;;0.40;0.30;;;15.70;99.90;;;;;;5041279;28;20437;-80
2022/09/08 06:51:42;;;;;;;0.20;0.20;;;15.70;99.90;;;;;;5048868;28;20457;-81
2022/09/08 06:54:09;;;;;;;0.20;0.20;;;15.80;99.90;;;;;;5046191;28;20591;-81
2022/09/08 06:56:58;;;;;;;0.30;0.20;;;15.80;99.90;;;;;;5048193;28;20940;-82
2022/09/08 06:59:50;;;;;;;0.30;0.30;;;15.80;99.90;;;;;;5063337;28;20509;-81
2022/09/08 07:02:27;;;;;;;0.20;0.20;;;15.90;99.90;;;;;;5061459;28;20489;-82
2022/09/08 07:04:54;;;;;;;0.20;0.20;;;15.90;99.90;;;;;;5063952;28;20423;-82
2022/09/08 07:07:27;;;;;;;0.20;0.20;;;15.90;99.90;;;;;;5064675;28;20463;-81
2022/09/08 07:10:04;;;;;;;0.10;0.10;;;16.00;99.90;;;;;;5064126;28;20936;-81
2022/09/08 07:12:58;;;;;;;0.20;0.20;;;16.10;99.90;;;;;;5044018;28;20422;-82
2022/09/08 07:15:56;;;;;;;0.20;0.20;;;16.20;99.90;;;;;;5039595;28;20429;-81
2022/09/08 07:18:40;;;;;;;0.45;0.45;;;16.20;99.90;;;;;;5052483;28;20431;-82
2022/09/08 07:21:14;;;;;;;0.30;0.30;;;16.30;99.90;;;;;;5066935;28;20422;-81
2022/09/08 07:23:43;;;;;;;0.22;0.22;;;16.40;99.90;;;;;;5049882;28;20726;-82
2022/09/08 07:26:25;;;;;;;0.20;0.20;;;16.50;99.90;;;;;;5049438;28;20430;-81
2022/09/08 07:28:56;;;;;;;0.20;0.20;;;16.70;99.90;;;;;;5045281;28;20433;-82
2022/09/08 07:31:24;;;;;;;0.90;0.40;;;16.70;99.90;;;;;;5038492;28;20869;-83
2022/09/08 07:34:05;;;;;;;0.32;0.32;;;16.80;99.90;;;;;;5043717;28;20429;-83
2022/09/08 07:37:06;;;;;;;0.50;0.50;;;17.00;99.90;;;;;;5056754;28;20440;-83
2022/09/08 07:39:41;;;;;;;0.10;0.10;;;17.20;99.90;;;;;;5057035;28;20485;-83
2022/09/08 07:42:15;;;;;;;0.43;0.43;;;17.40;99.90;;;;;;5047740;28;20576;-83
2022/09/08 07:44:58;;;;;;;0.20;0.20;;;17.50;99.90;;;;;;5066827;28;20491;-83
2022/09/08 07:48:01;;;;;;;0.20;0.20;;;17.50;99.90;;;;;;5040017;28;20438;-83
2022/09/08 07:50:56;;;;;;;0.30;0.30;;;17.50;99.90;;;;;;5067031;28;20417;-84
2022/09/08 07:54:10;;;;;;;0.28;0.28;;;17.60;99.90;;;;;;5071495;28;20426;-84
2022/09/08 07:56:52;;;;;;;0.30;0.30;;;17.80;99.90;;;;;;4981968;28;20438;-84
2022/09/08 08:00:04;;;;;;;0.20;0.20;;;18.10;99.90;;;;;;4973323;28;21017;-83
2022/09/08 08:02:46;;;;;;;0.40;0.40;;;18.20;99.90;;;;;;4968695;28;20542;-84
2022/09/08 08:05:16;;;;;;;0.30;0.30;;;18.40;99.90;;;;;;4984887;28;20432;-84
2022/09/08 08:08:12;;;;;;;0.22;0.22;;;18.50;99.90;;;;;;4976046;28;20516;-84
2022/09/08 08:11:08;;;;;;;0.30;0.30;;;18.60;99.90;;;;;;4981463;28;20466;-85
2022/09/08 08:14:08;;;;;;;0.50;0.35;;;18.60;99.90;;;;;;4966886;28;20441;-84
2022/09/08 08:16:56;;;;;;;0.20;0.20;;;18.80;99.90;;;;;;4890197;29;20443;-84
2022/09/08 08:19:45;;;;;;;0.22;0.22;;;18.90;99.90;;;;;;4881806;29;20443;-84
2022/09/08 08:22:50;;;;;;;0.30;0.30;;;19.10;99.90;;;;;;4897826;29;20457;-84
2022/09/08 08:25:25;;;;;;;0.30;0.30;;;19.20;99.90;;;;;;4891409;29;20465;-84
2022/09/08 08:28:03;;;;;;;0.30;0.30;;;19.20;99.90;;;;;;4924065;28;20512;-83
2022/09/08 08:30:53;;;;;;;0.30;0.30;;;19.10;99.90;;;;;;4965938;28;20445;-83
2022/09/08 08:33:29;;;;;;;0.30;0.30;;;19.20;99.90;;;;;;4964298;28;20667;-85
2022/09/08 08:36:06;;;;;;;0.30;0.30;;;19.20;99.90;;;;;;4953577;28;20490;-84
2022/09/08 08:38:41;;;;;;;0.30;0.30;;;19.50;99.90;;;;;;4952003;28;20558;-84
2022/09/08 08:41:31;;;;;;;0.30;0.30;;;20.30;99.90;;;;;;4950767;28;20551;-84
2022/09/08 08:44:13;;;;;;;0.20;0.20;;;21.00;99.90;;;;;;4950841;28;20436;-84
2022/09/08 08:47:10;;;;;;;0.30;0.30;;;21.60;99.90;;;;;;4968461;28;20867;-84
2022/09/08 08:50:01;;;;;;;0.30;0.30;;;22.10;99.90;;;;;;4955243;28;20444;-83
2022/09/08 08:52:37;;;;;;;0.30;0.30;;;22.30;99.90;;;;;;4997745;28;20487;-83
2022/09/08 08:55:32;;;;;;;0.20;0.20;;;22.70;99.90;;;;;;5056762;28;20544;-84
2022/09/08 08:58:37;;;;;;;0.40;0.40;;;22.60;99.90;;;;;;5036996;28;20429;-84
2022/09/08 09:01:29;;;;;;;0.40;0.40;;;22.40;99.90;;;;;;5032795;28;20440;-84
2022/09/08 09:04:25;;;;;;;0.28;0.28;;;21.70;99.90;;;;;;5044783;28;20427;-84
2022/09/08 09:07:14;;;;;;;0.22;0.22;;;21.20;99.90;;;;;;5071664;28;20969;-84
2022/09/08 09:10:23;;;;;;;0.90;0.50;;;20.40;99.90;;;;;;5042529;28;20922;-84
2022/09/08 09:13:15;;;;;;;0.30;0.30;;;19.90;99.90;;;;;;5062033;28;20507;-83
2022/09/08 09:16:09;;;;;;;0.20;0.20;;;20.20;99.90;;;;;;5049875;28;20433;-84
2022/09/08 09:19:21;;;;;;;0.30;0.30;;;21.00;99.90;;;;;;5065762;28;20481;-83
2022/09/08 09:21:52;;;;;;;0.30;0.30;;;21.30;99.90;;;;;;5061178;28;20451;-84
2022/09/08 09:24:37;;;;;;;1.33;0.30;;;21.40;99.90;;;;;;5041505;28;20473;-84
2022/09/08 09:27:23;;;;;;;0.30;0.30;;;21.50;99.90;;;;;;5059965;28;20445;-83
2022/09/08 09:30:14;;;;;;;0.30;0.30;;;22.00;99.90;;;;;;5040184;28;20437;-84
2022/09/08 09:33:14;;;;;;;0.20;0.20;;;22.90;99.90;;;;;;5054340;28;20433;-84
2022/09/08 09:35:48;;;;;;;0.25;0.25;;;22.40;99.90;;;;;;5060753;28;20718;-83
2022/09/08 09:38:47;;;;;;;0.30;0.30;;;21.70;99.90;;;;;;5044833;28;20435;-82
2022/09/08 09:41:40;;;;;;;0.20;0.20;;;21.60;99.90;;;;;;5063822;28;20439;-83
2022/09/08 09:44:33;;;;;;;0.80;0.30;;;21.60;99.90;;;;;;5048700;28;20433;-82
2022/09/08 09:47:24;;;;;;;0.30;0.30;;;21.70;99.90;;;;;;5044002;28;20930;-82
2022/09/08 09:50:32;;;;;;;0.22;0.22;;;21.80;99.90;;;;;;5037632;28;20486;-83
2022/09/08 09:53:37;;;;;;;0.20;0.20;;;22.40;99.90;;;;;;5067008;28;20435;-82
2022/09/08 09:56:23;;;;;;;0.30;0.30;;;22.80;99.90;;;;;;5066691;28;21128;-83
2022/09/08 09:59:18;;;;;;;0.20;0.20;;;23.10;99.90;;;;;;5060926;28;20462;-81
2022/09/08 10:02:09;;;;;;;0.20;0.20;;;23.20;99.90;;;;;;5065919;28;20431;-81
2022/09/08 10:04:48;;;;;;;0.20;0.20;;;22.90;99.90;;;;;;5049509;28;20440;-81
2022/09/08 10:07:24;;;;;;;0.20;0.20;;;22.10;99.90;;;;;;5058337;28;20477;-81
2022/09/08 10:10:12;;;;;;;0.30;0.30;;;21.70;99.90;;;;;;5056099;28;20461;-81
2022/09/08 10:12:48;;;;;;;0.20;0.20;;;21.40;99.90;;;;;;5068081;28;20427;-81
2022/09/08 10:15:32;;;;;;;0.20;0.20;;;21.30;99.90;;;;;;5069420;28;20481;-80
2022/09/08 10:18:17;;;;;;;0.20;0.20;;;21.30;99.90;;;;;;5056226;28;20872;-81
2022/09/08 10:20:47;;;;;;;0.20;0.20;;;21.70;99.90;;;;;;5063903;28;20435;-80
2022/09/08 10:23:23;;;;;;;0.20;0.20;;;22.00;99.90;;;;;;5052737;28;20431;-80
2022/09/08 10:26:14;;;;;;;0.20;0.20;;;22.20;99.90;;;;;;5066958;28;20435;-80
2022/09/08 10:29:06;;;;;;;0.30;0.30;;;22.10;99.90;;;;;;5054470;28;20981;-80
2022/09/08 10:31:33;;;;;;;0.20;0.20;;;21.80;99.90;;;;;;5036851;28;20496;-80
2022/09/08 10:34:27;;;;;;;0.20;0.20;;;21.80;99.90;;;;;;5047730;28;20431;-81
2022/09/08 10:37:13;;;;;;;0.20;0.20;;;21.80;99.90;;;;;;5046674;28;20436;-81
2022/09/08 10:39:54;;;;;;;0.30;0.30;;;21.70;99.90;;;;;;5064431;28;20455;-80
2022/09/08 10:42:24;;;;;;;0.20;0.20;;;21.70;99.90;;;;;;5046157;28;20443;-80
2022/09/08 10:45:17;;;;;;;0.20;0.20;;;21.80;99.90;;;;;;5041944;28;20882;-80
2022/09/08 10:48:22;;;;;;;0.20;0.20;;;21.90;99.90;;;;;;5039131;28;20439;-80
2022/09/08 10:50:52;;;;;;;0.10;0.10;;;22.20;99.90;;;;;;5041435;28;20486;-81
2022/09/08 10:53:41;;;;;;;0.20;0.20;;;22.70;99.90;;;;;;5046395;28;20437;-80
2022/09/08 10:56:11;;;;;;;0.20;0.20;;;23.70;99.90;;;;;;5042307;28;20443;-82
2022/09/08 10:59:10;;;;;;;0.80;0.20;;;23.90;99.90;;;;;;5073558;28;20924;-78
2022/09/08 11:02:12;;;;;;;0.20;0.20;;;;;;;;;;5047161;28;20497;-79
2022/09/08 11:04:49;;;;;;;0.30;0.30;;;;;;;;;;5041443;28;20458;-78
2022/09/08 11:07:19;;;;;;;0.20;0.20;;;;;;;;;;5075601;28;20437;-79
2022/09/08 11:09:55;;;;;;;0.20;0.20;;;;;;;;;;5049551;28;20849;-78
2022/09/08 11:12:42;;;;;;;0.30;0.30;;;;;;;;;;5065916;28;20461;-80
2022/09/08 11:15:54;;;;;;;0.20;0.20;;;24.50;99.90;;;;;;5054596;28;20486;-80
2022/09/08 11:18:40;;;;;;;0.30;0.30;;;;;;;;;;5001613;28;20716;-80
2022/09/08 11:21:16;;;;;;;0.20;0.20;;;;;;;;;;5007213;28;20504;-81
2022/09/08 11:24:15;;;;;;;0.10;0.10;;;;;;;;;;5024613;28;20438;-81
2022/09/08 11:26:52;;;;;;;0.20;0.20;;;;;;;;;;5006373;28;20435;-80
2022/09/08 11:29:29;;;;;;;0.22;0.22;;;25.20;99.90;;;;;;5017286;28;20983;-79
2022/09/08 11:32:29;;;;;;;0.40;0.40;;;23.90;99.90;;;;;;5000383;28;20795;-80
2022/09/08 11:35:27;;;;;;;0.20;0.20;;;23.40;99.90;;;;;;5022610;28;20474;-79
2022/09/08 11:38:15;;;;;;;0.27;0.27;;;23.50;99.90;;;;;;5019906;28;20454;-79
2022/09/08 11:41:16;;;;;;;0.20;0.20;;;23.60;99.90;;;;;;5017537;28;20431;-78
2022/09/08 11:44:18;;;;;;;0.17;0.17;;;23.50;99.90;;;;;;4989723;28;20430;-78
2022/09/08 11:46:56;;;;;;;0.30;0.30;;;23.70;99.90;;;;;;5019536;28;20489;-79
2022/09/08 11:49:35;;;;;;;0.30;0.30;;;23.90;99.90;;;;;;5015648;28;20770;-79
2022/09/08 11:52:49;;;;;;;0.25;0.25;;;24.40;99.90;;;;;;5008717;28;20937;-78
2022/09/08 11:55:57;;;;;;;0.20;0.20;;;25.10;99.90;;;;;;5072033;28;20413;-79
2022/09/08 11:58:35;;;;;;;0.20;0.20;;;25.10;99.90;;;;;;5084325;28;20477;-80
2022/09/08 12:01:28;;;;;;;0.20;0.20;;;;;;;;;;5078533;28;20433;-77
2022/09/08 12:03:55;;;;;;;0.45;0.45;;;;;;;;;;5061157;28;20439;-78
2022/09/08 12:06:48;;;;;;;0.20;0.20;;;26.00;99.90;;;;;;5055869;28;20457;-78
2022/09/08 12:09:24;;;;;;;0.50;0.20;;;27.50;99.90;;;;;;5042577;28;20851;-78
2022/09/08 12:12:05;;;;;;;0.20;0.20;;;26.90;99.90;;;;;;5055501;28;20961;-79
2022/09/08 12:14:49;;;;;;;0.20;0.20;;;26.20;99.90;;;;;;5065940;28;20435;-78
2022/09/08 12:17:57;;;;;;;0.50;0.40;;;25.60;99.90;;;;;;5042454;28;20967;-78
2022/09/08 12:20:39;;;;;;;0.50;0.27;;;25.50;99.90;;;;;;5037579;28;20439;-77
2022/09/08 12:23:24;;;;;;;0.25;0.25;;;26.00;99.90;;;;;;5067250;28;20459;-77
2022/09/08 12:25:59;;;;;;;0.20;0.20;;;26.20;99.90;;;;;;5060769;28;20446;-78
2022/09/08 12:29:29;;;;;;;0.20;0.20;;;26.20;99.90;;;;;;5049622;28;20437;-77
2022/09/08 12:32:22;;;;;;;0.20;0.20;;;25.70;99.90;;;;;;5027563;28;20437;-77
2022/09/08 12:35:00;;;;;;;0.30;0.30;;;;;;;;;;5057379;28;20427;-78
2022/09/08 12:37:30;;;;;;;0.20;0.20;;;;;;;;;;5049094;28;20963;-78
2022/09/08 12:40:25;;;;;;;0.50;0.20;;;;;;;;;;5063127;28;20820;-78
2022/09/08 12:43:04;;;;;;;0.20;0.20;;;;;;;;;;5061053;28;20440;-77
2022/09/08 12:45:56;;;;;;;0.20;0.20;;;;;;;;;;5034966;28;20469;-79
2022/09/08 12:48:26;;;;;;;0.30;0.30;;;;;;;;;;5012840;28;20467;-79
2022/09/08 12:50:54;;;;;;;0.22;0.22;;;;;;;;;;5062846;28;20439;-79
2022/09/08 12:53:21;;;;;;;0.20;0.20;;;;;;;;;;5063099;28;20431;-79
2022/09/08 12:56:10;;;;;;;0.25;0.25;;;;;;;;;;5045959;28;20425;-79
2022/09/08 12:58:54;;;;;;;0.20;0.20;;;;;;;;;;5042854;28;20439;-79
2022/09/08 13:01:29;;;;;;;0.20;0.20;;;;;;;;;;5035152;28;20483;-79
2022/09/08 13:03:59;;;;;;;0.40;0.40;;;;;;;;;;5064230;28;20445;-79
2022/09/08 13:06:35;;;;;;;0.20;0.20;;;;;;;;;;5062269;28;20433;-80
2022/09/08 13:09:13;;;;;;;0.30;0.30;;;;;;;;;;5066029;28;20477;-79
2022/09/08 13:11:46;;;;;;;0.30;0.30;;;;;;;;;;5062593;28;20520;-80
2022/09/08 13:14:14;;;;;;;0.30;0.30;;;;;;;;;;5069421;28;20428;-80
2022/09/08 13:17:19;;;;;;;0.30;0.30;;;;;;;;;;5062733;28;20427;-81
2022/09/08 13:20:11;;;;;;;0.20;0.20;;;;;;;;;;4985485;28;20445;-80
2022/09/08 13:22:41;;;;;;;0.20;0.20;;;;;;;;;;4984082;28;20807;-81
2022/09/08 13:25:24;;;;;;;0.50;0.40;;;;;;;;;;4963020;28;20434;-81
2022/09/08 13:28:00;;;;;;;0.30;0.30;;;;;;;;;;4980199;28;20437;-81
2022/09/08 13:30:38;;;;;;;0.22;0.22;;;;;;;;;;4978367;28;20434;-81
2022/09/08 13:33:17;;;;;;;0.20;0.20;;;;;;;;;;4978104;28;20480;-80
2022/09/08 13:35:50;;;;;;;0.20;0.20;;;;;;;;;;4984715;28;20489;-79
2022/09/08 13:38:32;;;;;;;0.10;0.10;;;;;;;;;;4969571;28;20450;-80
2022/09/08 13:41:17;;;;;;;0.63;0.27;;;;;;;;;;4977228;28;20842;-79
2022/09/08 13:44:03;;;;;;;0.30;0.30;;;;;;;;;;4979813;28;20442;-80
2022/09/08 13:46:32;;;;;;;1.30;0.30;;;;;;;;;;4978483;28;20448;-80
2022/09/08 13:49:18;;;;;;;0.20;0.20;;;;;;;;;;4967700;28;20442;-79
2022/09/08 13:52:04;;;;;;;0.47;0.27;;;;;;;;;;5058814;28;20431;-79
2022/09/08 13:54:50;;;;;;;0.20;0.20;;;;;;;;;;5041723;28;20478;-78
2022/09/08 13:57:26;;;;;;;0.30;0.30;;;;;;;;;;5059149;28;20784;-80
2022/09/08 14:00:05;;;;;;;0.40;0.40;;;;;;;;;;5047260;28;20436;-80